| Date | Time | Temp. (oF) | Dew Point (oF) | Rel. Hum. (%) | Press. (in.) | Wind Dir. | Wind Speed (mph) | Hourly Rainfall (in.) |
|
|---|---|---|---|---|---|---|---|---|---|
| 1 | 05/11 | 00:00 | 46 | 43 | 92 | 29.89 | WSW | 1 | 0.00 |
| 2 | 05/10 | 23:00 | 48 | 44 | 86 | 29.88 | W | 0 | 0.00 |
| 3 | 05/10 | 22:00 | 49 | 42 | 79 | 29.87 | SW | 0 | 0.00 |
| 4 | 05/10 | 21:00 | 54 | 44 | 69 | 29.86 | WSW | 2 | 0.00 |
| 5 | 05/10 | 20:00 | 62 | 43 | 50 | 29.84 | WNW | 0 | 0.00 |
| 6 | 05/10 | 19:00 | 65 | 43 | 45 | 29.79 | NNW | 4 | 0.00 |
| 7 | 05/10 | 18:00 | 64 | 43 | 48 | 29.79 | W | 10 | 0.00 |
| 8 | 05/10 | 17:00 | 61 | 43 | 53 | 29.83 | N | 4 | 0.00 |
| 9 | 05/10 | 16:00 | 61 | 44 | 54 | 29.81 | NNW | 5 | 0.00 |
| 10 | 05/10 | 15:00 | 61 | 47 | 62 | 29.81 | NNW | 6 | 0.00 |
| 11 | 05/10 | 14:00 | 57 | 45 | 66 | 29.82 | N | 7 | 0.00 |
| 12 | 05/10 | 13:00 | 58 | 50 | 76 | 29.80 | NW | 4 | 0.00 |
| 13 | 05/10 | 12:00 | 60 | 49 | 68 | 29.77 | NW | 4 | 0.00 |
| 14 | 05/10 | 11:00 | 58 | 51 | 78 | 29.75 | NNE | 5 | 0.00 |
| 15 | 05/10 | 10:00 | 55 | 51 | 89 | 29.75 | WNW | 2 | 0.00 |
| 16 | 05/10 | 09:00 | 51 | 50 | 100 | 29.73 | NW | 0 | 0.00 |
| 17 | 05/10 | 08:00 | 50 | 50 | 100 | 29.72 | NNW | 3 | 0.00 |
| 18 | 05/10 | 07:00 | 49 | 49 | 100 | 29.71 | NW | 1 | 0.00 |
| 19 | 05/10 | 06:00 | 47 | 46 | 100 | 29.69 | W | 0 | 0.00 |
| 20 | 05/10 | 05:00 | 47 | 46 | 100 | 29.67 | SW | 1 | 0.00 |
| 21 | 05/10 | 04:00 | 49 | 49 | 100 | 29.67 | NW | 2 | 0.00 |
| 22 | 05/10 | 03:00 | 48 | 48 | 100 | 29.66 | W | 2 | 0.00 |
| 23 | 05/10 | 02:00 | 48 | 48 | 100 | 29.67 | WSW | 0 | 0.00 |
| 24 | 05/10 | 01:00 | 49 | 49 | 100 | 29.68 | E | 0 | 0.00 |